createdAt,value
2019-02-28T00:02:09.142Z,93.70
2019-02-28T00:04:39.641Z,93.70
2019-02-28T00:07:10.101Z,94.00
2019-02-28T00:09:40.620Z,94.10
2019-02-28T00:12:13.724Z,94.30
2019-02-28T00:14:45.541Z,94.10
2019-02-28T00:17:16.157Z,94.10
2019-02-28T00:19:46.651Z,94.30
2019-02-28T00:22:17.681Z,94.30
2019-02-28T00:24:48.172Z,94.40
2019-02-28T00:27:21.934Z,94.40
2019-02-28T00:29:52.673Z,94.20
2019-02-28T00:32:24.772Z,94.30
2019-02-28T00:34:58.053Z,94.30
2019-02-28T00:37:28.535Z,94.50
2019-02-28T00:39:59.060Z,94.70
2019-02-28T00:42:30.719Z,94.80
2019-02-28T00:45:03.628Z,94.80
2019-02-28T00:47:34.249Z,95.00
2019-02-28T00:50:06.313Z,95.10
2019-02-28T00:52:38.884Z,95.20
2019-02-28T00:55:14.513Z,95.30
2019-02-28T00:57:45.728Z,95.30
2019-02-28T01:00:19.603Z,95.30
2019-02-28T01:02:53.539Z,95.20
2019-02-28T01:05:24.042Z,95.20
2019-02-28T01:07:59.945Z,95.20
2019-02-28T01:10:31.698Z,95.30
2019-02-28T01:13:21.493Z,95.60
2019-02-28T01:15:51.997Z,95.50
2019-02-28T01:18:22.449Z,95.70
2019-02-28T01:20:52.937Z,95.80
2019-02-28T01:23:23.420Z,95.90
2019-02-28T01:25:54.058Z,96.00
2019-02-28T01:28:27.062Z,96.00
2019-02-28T01:31:00.995Z,96.00
2019-02-28T01:33:33.018Z,96.20
2019-02-28T01:36:03.477Z,96.20
2019-02-28T01:38:33.982Z,96.10
2019-02-28T01:41:08.386Z,95.90
2019-02-28T01:43:39.857Z,96.00
2019-02-28T01:46:10.348Z,96.20
2019-02-28T01:48:40.810Z,96.20
2019-02-28T01:51:11.296Z,96.10
2019-02-28T01:53:42.970Z,96.30
2019-02-28T01:56:16.349Z,96.40
2019-02-28T01:58:47.669Z,96.40
2019-02-28T02:01:19.650Z,96.40
2019-02-28T02:03:51.316Z,96.50
2019-02-28T02:06:22.567Z,96.50
2019-02-28T02:09:08.121Z,96.20
2019-02-28T02:11:40.383Z,96.20
2019-02-28T02:14:11.893Z,96.10
2019-02-28T02:16:42.549Z,95.90
2019-02-28T02:19:17.581Z,95.80
2019-02-28T02:21:46.724Z,95.90
2019-02-28T02:24:17.180Z,96.00
2019-02-28T02:26:49.168Z,96.20
2019-02-28T02:29:19.674Z,96.10
2019-02-28T02:31:51.334Z,96.00
2019-02-28T02:34:24.346Z,95.90
2019-02-28T02:36:55.954Z,96.00
2019-02-28T02:39:27.813Z,95.80
2019-02-28T02:41:59.917Z,95.80
2019-02-28T02:44:31.863Z,96.30
2019-02-28T02:47:06.767Z,96.00
2019-02-28T02:49:37.773Z,96.20
2019-02-28T02:52:09.346Z,96.20
2019-02-28T02:54:39.857Z,96.30
2019-02-28T02:57:14.007Z,96.50
2019-02-28T02:59:43.685Z,96.50
2019-02-28T03:02:14.912Z,96.70
2019-02-28T03:04:46.144Z,96.20
2019-02-28T03:07:23.000Z,96.20
2019-02-28T03:09:49.359Z,96.20
2019-02-28T03:12:19.815Z,96.50
2019-02-28T03:14:50.327Z,96.50
2019-02-28T03:17:22.326Z,96.50
2019-02-28T03:19:53.292Z,96.50
2019-02-28T03:22:28.255Z,96.50
2019-02-28T03:24:56.056Z,96.90
2019-02-28T03:27:27.201Z,97.00
2019-02-28T03:29:58.763Z,97.00
2019-02-28T03:32:39.650Z,97.00
2019-02-28T03:35:02.099Z,97.00
2019-02-28T03:37:34.401Z,96.90
2019-02-28T03:40:09.616Z,97.20
2019-02-28T03:42:40.886Z,97.10
2019-02-28T03:45:14.866Z,97.10
2019-02-28T03:47:45.412Z,97.00
2019-02-28T03:50:16.230Z,97.10
2019-02-28T03:52:46.738Z,97.20
2019-02-28T03:55:18.742Z,97.20
2019-02-28T03:57:49.308Z,97.20
2019-02-28T04:00:22.400Z,97.20
2019-02-28T04:03:12.328Z,97.10
2019-02-28T04:05:43.956Z,97.10
2019-02-28T04:08:35.334Z,97.20
2019-02-28T04:11:05.885Z,97.10
2019-02-28T04:13:36.409Z,97.00
2019-02-28T04:16:09.102Z,97.20
2019-02-28T04:18:44.198Z,97.40
2019-02-28T04:21:12.170Z,97.60
2019-02-28T04:23:42.801Z,97.60
2019-02-28T04:26:16.028Z,97.70
2019-02-28T04:28:53.511Z,97.60
2019-02-28T04:31:20.450Z,97.70
2019-02-28T04:33:50.965Z,97.40
2019-02-28T04:36:21.475Z,97.60
2019-02-28T04:38:52.502Z,97.80
2019-02-28T04:41:23.127Z,97.90
2019-02-28T04:43:54.185Z,97.80
2019-02-28T04:46:24.652Z,97.60
2019-02-28T04:48:55.828Z,97.50
2019-02-28T04:51:26.369Z,97.90
2019-02-28T04:53:56.901Z,98.00
2019-02-28T04:56:28.907Z,97.90
2019-02-28T04:59:01.754Z,98.00
2019-02-28T05:01:32.249Z,98.10
2019-02-28T05:04:03.021Z,98.10
2019-02-28T05:06:35.159Z,98.00
2019-02-28T05:09:10.682Z,98.10
2019-02-28T05:11:39.980Z,98.10
2019-02-28T05:14:10.475Z,98.20
2019-02-28T05:16:47.224Z,98.20
2019-02-28T05:19:13.135Z,98.30
2019-02-28T05:21:43.622Z,98.40
2019-02-28T05:24:14.807Z,98.40
2019-02-28T05:26:45.841Z,98.30
2019-02-28T05:29:18.930Z,98.30
2019-02-28T05:31:49.505Z,98.20
2019-02-28T05:34:21.691Z,98.30
2019-02-28T05:36:54.367Z,98.50
2019-02-28T05:39:24.888Z,98.70
2019-02-28T05:41:55.347Z,98.90
2019-02-28T05:44:25.851Z,98.90
2019-02-28T05:46:58.065Z,99.00
2019-02-28T05:49:29.692Z,99.00
2019-02-28T05:52:03.017Z,98.90
2019-02-28T05:54:35.922Z,98.90
2019-02-28T05:57:08.096Z,99.10
2019-02-28T05:59:39.771Z,99.10
2019-02-28T06:02:11.062Z,99.10
2019-02-28T06:04:41.565Z,99.00
2019-02-28T06:07:12.207Z,98.90
2019-02-28T06:09:45.551Z,98.80
2019-02-28T06:12:17.889Z,98.80
2019-02-28T06:14:48.390Z,98.80
2019-02-28T06:17:21.702Z,98.80
2019-02-28T06:19:52.458Z,98.70
2019-02-28T06:22:24.383Z,98.80
2019-02-28T06:24:54.900Z,98.80
2019-02-28T06:27:25.390Z,98.80
2019-02-28T06:29:55.891Z,98.90
2019-02-28T06:32:27.381Z,98.80
2019-02-28T06:34:59.842Z,99.00
2019-02-28T06:37:30.222Z,98.70
2019-02-28T06:40:00.966Z,98.70
2019-02-28T06:42:33.318Z,98.70
2019-02-28T06:45:05.547Z,99.00
2019-02-28T06:47:39.050Z,98.70
2019-02-28T06:50:15.309Z,98.70
2019-02-28T06:52:46.978Z,98.60
2019-02-28T06:55:28.055Z,98.60
2019-02-28T06:58:00.042Z,98.50
2019-02-28T07:00:31.247Z,98.30
2019-02-28T07:03:04.478Z,98.30
2019-02-28T07:05:35.005Z,98.20
2019-02-28T07:08:06.714Z,97.90
2019-02-28T07:10:38.091Z,97.50
2019-02-28T07:13:11.833Z,97.30
2019-02-28T07:15:43.769Z,97.10
2019-02-28T07:18:14.228Z,96.70
2019-02-28T07:20:47.288Z,96.60
2019-02-28T07:23:17.747Z,96.50
2019-02-28T07:25:48.254Z,96.40
2019-02-28T07:28:18.713Z,96.00
2019-02-28T07:30:52.184Z,95.50
2019-02-28T07:33:24.071Z,95.20
2019-02-28T07:35:54.566Z,94.70
2019-02-28T07:38:25.575Z,94.50
2019-02-28T07:40:58.961Z,94.50
2019-02-28T07:43:29.888Z,94.30
2019-02-28T07:46:04.434Z,94.20
2019-02-28T07:48:33.977Z,94.10
2019-02-28T07:51:04.488Z,93.90
2019-02-28T07:53:34.980Z,93.60
2019-02-28T07:56:07.894Z,93.70
2019-02-28T07:58:38.510Z,93.80
2019-02-28T08:01:09.029Z,93.90
2019-02-28T08:03:39.472Z,92.90
2019-02-28T08:06:09.960Z,92.50
2019-02-28T08:08:40.430Z,92.30
2019-02-28T08:11:11.006Z,92.20
2019-02-28T08:13:42.024Z,91.80
2019-02-28T08:16:12.583Z,91.80
2019-02-28T08:18:43.136Z,91.60
2019-02-28T08:21:13.632Z,91.80
2019-02-28T08:23:45.624Z,91.50
2019-02-28T08:26:18.773Z,91.30
2019-02-28T08:28:48.468Z,90.90
2019-02-28T08:31:18.971Z,90.50
2019-02-28T08:33:49.435Z,90.50
2019-02-28T08:36:21.490Z,90.30
2019-02-28T08:38:51.967Z,89.80
2019-02-28T08:41:25.711Z,87.70
2019-02-28T08:43:56.357Z,86.00
2019-02-28T08:46:28.176Z,85.50
2019-02-28T08:48:58.669Z,82.50
2019-02-28T08:51:31.691Z,82.90
2019-02-28T08:54:03.213Z,82.10
2019-02-28T08:56:33.671Z,81.40
2019-02-28T08:59:11.532Z,80.00
2019-02-28T09:01:40.020Z,79.80
2019-02-28T09:04:10.152Z,81.40
2019-02-28T09:06:41.709Z,80.80
2019-02-28T09:09:14.612Z,80.10
2019-02-28T09:11:44.893Z,78.30
2019-02-28T09:14:17.834Z,78.30
2019-02-28T09:16:48.241Z,76.10
2019-02-28T09:19:18.692Z,75.70
2019-02-28T09:21:52.921Z,76.00
2019-02-28T09:24:22.956Z,75.30
2019-02-28T09:26:53.454Z,75.30
2019-02-28T09:29:24.717Z,74.20
2019-02-28T09:31:56.275Z,75.40
2019-02-28T09:34:30.641Z,73.70
2019-02-28T09:37:00.318Z,72.20
2019-02-28T09:39:32.867Z,70.20
2019-02-28T09:42:04.056Z,67.40
2019-02-28T09:44:35.488Z,68.20
2019-02-28T09:47:05.970Z,65.90
2019-02-28T09:49:36.426Z,63.60
2019-02-28T09:52:07.335Z,60.60
2019-02-28T09:54:37.975Z,58.60
2019-02-28T09:57:08.488Z,57.40
2019-02-28T09:59:39.526Z,56.30
2019-02-28T10:02:10.026Z,53.20
2019-02-28T10:04:41.411Z,52.40
2019-02-28T10:07:12.990Z,50.50
2019-02-28T10:09:44.391Z,48.30
2019-02-28T10:12:15.682Z,46.90
2019-02-28T10:14:46.160Z,45.40
2019-02-28T10:17:16.661Z,44.40
2019-02-28T10:19:51.967Z,44.00
2019-02-28T10:22:19.335Z,41.60
2019-02-28T10:24:51.400Z,42.50
2019-02-28T10:27:26.725Z,41.90
2019-02-28T10:29:57.232Z,40.70
2019-02-28T10:32:31.671Z,38.10
2019-02-28T10:35:02.458Z,37.70
2019-02-28T10:37:32.905Z,38.30
2019-02-28T10:40:05.129Z,38.10
2019-02-28T10:42:40.266Z,36.90
2019-02-28T10:45:14.781Z,36.50
2019-02-28T10:47:46.861Z,36.50
2019-02-28T10:50:52.543Z,36.80
2019-02-28T10:53:23.011Z,37.20
2019-02-28T10:55:57.919Z,36.10
2019-02-28T10:58:28.906Z,36.10
2019-02-28T11:00:59.395Z,36.00
2019-02-28T11:03:32.218Z,36.90
2019-02-28T11:06:03.676Z,37.30
2019-02-28T11:08:35.301Z,36.50
2019-02-28T11:11:07.325Z,36.60
2019-02-28T11:13:40.792Z,35.90
2019-02-28T11:16:12.384Z,34.10
2019-02-28T11:18:44.779Z,34.30
2019-02-28T11:21:16.015Z,33.70
2019-02-28T11:26:19.172Z,33.00
2019-02-28T11:28:52.234Z,32.90
2019-02-28T11:31:22.809Z,32.30
2019-02-28T11:33:53.355Z,31.40
2019-02-28T11:36:23.863Z,30.80
2019-02-28T11:38:55.470Z,29.80
2019-02-28T11:41:26.676Z,29.10
2019-02-28T11:43:57.172Z,29.00
2019-02-28T11:46:27.783Z,28.10
2019-02-28T11:48:58.276Z,29.30
2019-02-28T11:51:30.419Z,29.10
2019-02-28T11:54:00.848Z,28.40
2019-02-28T11:56:31.344Z,28.50
2019-02-28T11:59:01.839Z,29.30
2019-02-28T12:01:32.328Z,28.80
2019-02-28T12:04:03.968Z,28.60
2019-02-28T12:06:34.512Z,29.20
2019-02-28T12:09:07.984Z,29.90
2019-02-28T12:11:38.479Z,29.80
2019-02-28T12:14:08.973Z,30.00
2019-02-28T12:16:40.753Z,28.90
2019-02-28T12:19:12.512Z,29.80
2019-02-28T12:21:43.475Z,30.60
2019-02-28T12:24:14.001Z,30.50
2019-02-28T12:26:44.544Z,29.90
2019-02-28T12:29:15.710Z,29.80
2019-02-28T12:31:46.231Z,29.70
2019-02-28T12:34:16.722Z,30.00
2019-02-28T12:36:49.403Z,29.70
2019-02-28T12:39:20.136Z,29.60
2019-02-28T12:41:50.687Z,30.70
2019-02-28T12:44:21.188Z,31.00
2019-02-28T12:46:51.696Z,30.00
2019-02-28T12:49:23.134Z,29.30
2019-02-28T12:51:53.736Z,30.00
2019-02-28T12:54:25.966Z,30.10
2019-02-28T12:56:57.061Z,30.00
2019-02-28T12:59:27.548Z,30.00
2019-02-28T13:01:58.132Z,30.40
2019-02-28T13:04:28.616Z,29.60
2019-02-28T13:06:59.542Z,29.90
2019-02-28T13:09:30.371Z,30.00
2019-02-28T13:12:00.884Z,30.90
2019-02-28T13:14:32.237Z,30.80
2019-02-28T13:17:02.692Z,31.00
2019-02-28T13:19:34.454Z,31.30
2019-02-28T13:22:04.986Z,31.90
2019-02-28T13:24:35.478Z,31.60
2019-02-28T13:27:09.825Z,30.60
2019-02-28T13:29:40.772Z,30.60
2019-02-28T13:32:12.786Z,30.10
2019-02-28T13:34:43.360Z,30.00
2019-02-28T13:37:16.223Z,30.00
2019-02-28T13:39:46.703Z,30.30
2019-02-28T13:42:19.511Z,29.60
2019-02-28T13:44:51.393Z,29.00
2019-02-28T13:47:22.039Z,29.30
2019-02-28T13:49:54.027Z,28.70
2019-02-28T13:52:24.630Z,30.00
2019-02-28T13:54:55.754Z,30.70
2019-02-28T13:57:26.238Z,30.40
2019-02-28T13:59:58.326Z,31.30
2019-02-28T14:02:29.814Z,31.70
2019-02-28T14:05:03.040Z,32.00
2019-02-28T14:07:36.875Z,32.20
2019-02-28T14:10:14.426Z,33.00
2019-02-28T14:12:44.956Z,33.10
2019-02-28T14:15:25.023Z,33.70
2019-02-28T14:17:56.450Z,33.30
2019-02-28T14:20:28.599Z,33.40
2019-02-28T14:22:59.145Z,33.10
2019-02-28T14:25:32.239Z,33.70
2019-02-28T14:28:02.750Z,33.10
2019-02-28T14:30:34.860Z,33.10
2019-02-28T14:33:05.586Z,33.10
2019-02-28T14:35:38.471Z,33.30
2019-02-28T14:38:09.398Z,34.10
2019-02-28T14:40:39.971Z,33.50
2019-02-28T14:43:12.980Z,33.70
2019-02-28T14:45:46.502Z,33.80
2019-02-28T14:48:21.030Z,34.00
2019-02-28T14:50:54.167Z,34.00
2019-02-28T14:53:23.724Z,34.00
2019-02-28T14:55:56.295Z,34.20
2019-02-28T14:58:27.087Z,34.70
2019-02-28T15:00:58.118Z,34.10
2019-02-28T15:03:28.695Z,33.90
2019-02-28T15:05:59.159Z,34.20
2019-02-28T15:08:29.652Z,33.90
2019-02-28T15:11:00.116Z,34.30
2019-02-28T15:13:33.461Z,35.10
2019-02-28T15:16:05.848Z,34.90
2019-02-28T15:18:36.463Z,34.80
2019-02-28T15:21:08.305Z,35.00
2019-02-28T15:23:38.969Z,34.60
2019-02-28T15:26:09.439Z,35.40
2019-02-28T15:28:41.491Z,34.70
2019-02-28T15:31:13.645Z,35.00
2019-02-28T15:33:46.411Z,34.90
2019-02-28T15:36:16.892Z,33.90
2019-02-28T15:38:47.420Z,33.40
2019-02-28T15:41:20.749Z,33.70
2019-02-28T15:43:53.731Z,33.90
2019-02-28T15:46:24.566Z,34.10
2019-02-28T15:48:55.141Z,34.50
2019-02-28T15:51:29.077Z,34.70
2019-02-28T15:53:57.891Z,35.10
2019-02-28T15:56:28.459Z,35.10
2019-02-28T15:58:58.930Z,35.50
2019-02-28T16:01:32.196Z,35.60
2019-02-28T16:04:02.976Z,36.30
2019-02-28T16:06:33.466Z,36.10
2019-02-28T16:09:05.094Z,36.20
2019-02-28T16:11:37.424Z,36.50
2019-02-28T16:14:14.540Z,36.90
2019-02-28T16:16:41.148Z,37.20
2019-02-28T16:19:11.736Z,37.40
2019-02-28T16:21:42.212Z,37.40
2019-02-28T16:24:12.771Z,37.70
2019-02-28T16:26:43.248Z,37.70
2019-02-28T16:29:14.854Z,37.90
2019-02-28T16:31:45.991Z,38.80
2019-02-28T16:34:18.875Z,38.90
2019-02-28T16:36:49.382Z,39.40
2019-02-28T16:39:19.923Z,39.30
2019-02-28T16:41:50.430Z,39.40
2019-02-28T16:44:21.463Z,39.70
2019-02-28T16:46:54.377Z,39.80
2019-02-28T16:49:24.883Z,39.70
2019-02-28T16:51:55.356Z,39.70
2019-02-28T16:54:27.834Z,39.50
2019-02-28T16:56:58.017Z,39.80
2019-02-28T16:59:31.548Z,40.10
2019-02-28T17:02:04.245Z,40.80
2019-02-28T17:04:36.295Z,40.70
2019-02-28T17:07:09.407Z,40.60
2019-02-28T17:09:40.704Z,40.50
2019-02-28T17:12:15.450Z,40.60
2019-02-28T17:14:48.270Z,40.60
2019-02-28T17:17:19.898Z,40.60
2019-02-28T17:19:50.367Z,41.00
2019-02-28T17:22:23.715Z,41.70
2019-02-28T17:24:54.593Z,41.10
2019-02-28T17:27:26.804Z,41.30
2019-02-28T17:30:01.696Z,43.20
2019-02-28T17:32:32.618Z,44.10
2019-02-28T17:35:03.170Z,44.30
2019-02-28T17:37:34.951Z,44.00
2019-02-28T17:40:09.699Z,44.50
2019-02-28T17:42:40.198Z,44.80
2019-02-28T17:45:16.362Z,45.20
2019-02-28T17:48:34.147Z,45.40
2019-02-28T17:51:18.399Z,45.40
2019-02-28T17:54:12.913Z,45.60
2019-02-28T17:57:09.486Z,46.20
2019-02-28T18:00:07.437Z,46.10
2019-02-28T18:02:59.065Z,46.30
2019-02-28T18:06:14.551Z,46.40
2019-02-28T18:09:01.522Z,47.00
2019-02-28T18:11:50.144Z,46.90
2019-02-28T18:14:31.262Z,46.80
2019-02-28T18:17:50.695Z,47.40
2019-02-28T18:20:41.041Z,47.70
2019-02-28T18:23:24.881Z,48.20
2019-02-28T18:26:15.416Z,47.80
2019-02-28T18:28:59.384Z,48.30
2019-02-28T18:31:31.526Z,48.60
2019-02-28T18:34:02.208Z,49.00
2019-02-28T18:36:32.841Z,49.00
2019-02-28T18:39:08.061Z,49.60
2019-02-28T18:41:38.939Z,49.90
2019-02-28T18:44:15.445Z,50.10
2019-02-28T18:46:45.945Z,50.40
2019-02-28T18:49:17.234Z,50.70
2019-02-28T18:51:47.742Z,51.00
2019-02-28T18:54:18.217Z,51.40
2019-02-28T18:56:50.089Z,51.90
2019-02-28T18:59:20.578Z,51.90
2019-02-28T19:01:51.086Z,52.20
2019-02-28T19:04:21.649Z,52.60
2019-02-28T19:06:52.126Z,52.50
2019-02-28T19:09:23.889Z,52.90
2019-02-28T19:11:57.460Z,53.00
2019-02-28T19:14:29.213Z,52.90
2019-02-28T19:17:01.803Z,53.10
2019-02-28T19:19:32.324Z,52.70
2019-02-28T19:22:02.832Z,52.70
2019-02-28T19:24:33.485Z,52.60
2019-02-28T19:27:03.949Z,53.00
2019-02-28T19:29:34.445Z,52.80
2019-02-28T19:32:06.123Z,53.20
2019-02-28T19:34:36.694Z,54.00
2019-02-28T19:37:07.230Z,53.50
2019-02-28T19:39:37.727Z,53.50
2019-02-28T19:42:08.203Z,53.50
2019-02-28T19:44:40.044Z,53.40
2019-02-28T19:47:10.537Z,53.40
2019-02-28T19:49:41.295Z,53.70
2019-02-28T19:52:13.640Z,53.60
2019-02-28T19:54:44.118Z,53.80
2019-02-28T19:57:14.694Z,53.90
2019-02-28T19:59:46.825Z,53.90
2019-02-28T20:02:20.262Z,54.40
2019-02-28T20:04:50.855Z,54.80
2019-02-28T20:07:22.493Z,54.90
2019-02-28T20:09:53.059Z,55.40
2019-02-28T20:12:23.560Z,55.50
2019-02-28T20:14:54.035Z,55.20
2019-02-28T20:17:26.416Z,55.40
2019-02-28T20:19:58.505Z,55.80
2019-02-28T20:22:30.678Z,56.10
2019-02-28T20:25:01.177Z,55.70
2019-02-28T20:27:32.441Z,55.30
2019-02-28T20:30:03.458Z,55.10
2019-02-28T20:32:34.019Z,55.20
2019-02-28T20:35:06.134Z,56.00
2019-02-28T20:37:36.975Z,55.80
2019-02-28T20:40:23.637Z,56.00
2019-02-28T20:42:55.158Z,56.20
2019-02-28T20:45:25.743Z,56.10
2019-02-28T20:48:00.253Z,56.40
2019-02-28T20:50:42.859Z,56.40
2019-02-28T20:53:15.339Z,56.40
2019-02-28T20:55:45.858Z,56.90
2019-02-28T20:58:19.104Z,56.60
2019-02-28T21:00:49.619Z,57.00
2019-02-28T21:03:21.093Z,57.00
2019-02-28T21:05:52.018Z,57.20
2019-02-28T21:08:25.672Z,57.50
2019-02-28T21:10:57.956Z,57.60
2019-02-28T21:13:30.068Z,57.90
2019-02-28T21:16:02.814Z,58.50
2019-02-28T21:18:33.318Z,58.70
2019-02-28T21:21:05.440Z,59.20
2019-02-28T21:23:39.129Z,60.00
2019-02-28T21:26:15.015Z,61.80
2019-02-28T21:28:45.510Z,62.50
2019-02-28T21:31:16.005Z,63.40
2019-02-28T21:33:46.466Z,64.00
2019-02-28T21:36:17.039Z,64.00
2019-02-28T21:38:47.516Z,64.40
2019-02-28T21:41:21.590Z,64.90
2019-02-28T21:43:52.049Z,65.40
2019-02-28T21:46:22.554Z,66.40
2019-02-28T21:48:53.035Z,67.90
2019-02-28T21:51:23.514Z,70.40
2019-02-28T21:53:55.172Z,70.90
2019-02-28T21:56:25.658Z,71.00
2019-02-28T21:58:56.967Z,71.70
2019-02-28T22:01:27.474Z,73.50
2019-02-28T22:03:57.933Z,73.30
2019-02-28T22:06:28.437Z,74.00
2019-02-28T22:08:59.237Z,75.20
2019-02-28T22:11:30.362Z,76.00
2019-02-28T22:14:01.865Z,76.90
2019-02-28T22:16:34.210Z,77.30
2019-02-28T22:19:04.691Z,78.10
2019-02-28T22:21:35.174Z,78.40
2019-02-28T22:24:05.783Z,79.00
2019-02-28T22:26:37.821Z,79.30
2019-02-28T22:29:09.398Z,80.10
2019-02-28T22:31:44.565Z,80.90
2019-02-28T22:34:28.971Z,80.90
2019-02-28T22:37:01.765Z,81.10
2019-02-28T22:39:32.244Z,81.80
2019-02-28T22:42:03.290Z,82.50
2019-02-28T22:44:33.762Z,83.20
2019-02-28T22:47:04.243Z,83.90
2019-02-28T22:49:34.732Z,84.40
2019-02-28T22:52:05.276Z,85.10
2019-02-28T22:54:37.666Z,87.00
2019-02-28T22:57:09.343Z,86.90
2019-02-28T22:59:39.801Z,86.90
2019-02-28T23:02:10.437Z,87.00
2019-02-28T23:04:40.940Z,88.00
2019-02-28T23:07:11.433Z,88.10
2019-02-28T23:09:41.916Z,88.50
2019-02-28T23:12:12.763Z,88.50
2019-02-28T23:14:43.847Z,90.30
2019-02-28T23:17:15.454Z,90.20
2019-02-28T23:19:45.944Z,90.10
2019-02-28T23:22:16.918Z,90.20
2019-02-28T23:24:47.545Z,90.30
2019-02-28T23:27:21.636Z,90.70
2019-02-28T23:29:57.818Z,90.60
2019-02-28T23:32:33.257Z,90.90
2019-02-28T23:35:05.564Z,91.00
2019-02-28T23:37:36.053Z,90.90
2019-02-28T23:40:08.464Z,90.70
2019-02-28T23:42:38.953Z,90.70
2019-02-28T23:45:09.878Z,90.70
2019-02-28T23:47:42.493Z,90.80
2019-02-28T23:50:13.058Z,91.00
2019-02-28T23:52:43.575Z,91.00
2019-02-28T23:55:15.633Z,91.00
2019-02-28T23:57:46.194Z,91.00
